sensor_id;sensor_type;location;lat;lon;timestamp;temperature;humidity
5956;DHT22;3004;48.080;11.600;2023-02-23T05:47:16;3.10;99.90
5956;DHT22;3004;48.080;11.600;2023-02-23T05:54:39;3.20;99.90
5956;DHT22;3004;48.080;11.600;2023-02-23T05:59:42;3.10;99.90
5956;DHT22;3004;48.080;11.600;2023-02-23T08:43:04;8.10;99.90
5956;DHT22;3004;48.080;11.600;2023-02-23T08:45:33;8.10;99.90
5956;DHT22;3004;48.080;11.600;2023-02-23T08:48:00;8.20;99.90
5956;DHT22;3004;48.080;11.600;2023-02-23T08:50:31;8.20;99.90
5956;DHT22;3004;48.080;11.600;2023-02-23T08:53:00;8.30;99.90
5956;DHT22;3004;48.080;11.600;2023-02-23T08:55:27;8.30;99.90
5956;DHT22;3004;48.080;11.600;2023-02-23T08:57:54;8.40;99.90
5956;DHT22;3004;48.080;11.600;2023-02-23T09:20:21;8.70;99.90
5956;DHT22;3004;48.080;11.600;2023-02-23T09:25:22;8.80;99.90
5956;DHT22;3004;48.080;11.600;2023-02-23T09:35:19;9.10;99.90
5956;DHT22;3004;48.080;11.600;2023-02-23T09:37:47;9.10;99.90
5956;DHT22;3004;48.080;11.600;2023-02-23T09:40:18;9.20;99.90
5956;DHT22;3004;48.080;11.600;2023-02-23T09:42:53;9.20;99.90
5956;DHT22;3004;48.080;11.600;2023-02-23T09:45:36;9.30;99.90
5956;DHT22;3004;48.080;11.600;2023-02-23T09:50:48;9.40;99.90
5956;DHT22;3004;48.080;11.600;2023-02-23T09:53:38;9.60;99.90
5956;DHT22;3004;48.080;11.600;2023-02-23T09:56:15;9.60;99.90
5956;DHT22;3004;48.080;11.600;2023-02-23T09:58:44;9.60;99.90
5956;DHT22;3004;48.080;11.600;2023-02-23T10:20:12;10.10;99.90
5956;DHT22;3004;48.080;11.600;2023-02-23T10:27:46;10.10;99.90
5956;DHT22;3004;48.080;11.600;2023-02-23T10:40:31;10.30;99.90
5956;DHT22;3004;48.080;11.600;2023-02-23T10:43:01;10.30;99.90
5956;DHT22;3004;48.080;11.600;2023-02-23T11:03:29;10.40;99.90
5956;DHT22;3004;48.080;11.600;2023-02-23T11:08:31;10.60;99.90
5956;DHT22;3004;48.080;11.600;2023-02-23T11:11:10;10.70;99.90
5956;DHT22;3004;48.080;11.600;2023-02-23T11:13:53;10.60;99.90
5956;DHT22;3004;48.080;11.600;2023-02-23T11:16:22;10.70;99.90
5956;DHT22;3004;48.080;11.600;2023-02-23T11:26:35;10.60;99.90
5956;DHT22;3004;48.080;11.600;2023-02-23T11:31:46;10.60;99.90
5956;DHT22;3004;48.080;11.600;2023-02-23T11:34:22;10.70;99.90
5956;DHT22;3004;48.080;11.600;2023-02-23T11:37:05;10.60;99.90
5956;DHT22;3004;48.080;11.600;2023-02-23T11:39:33;10.50;99.90
5956;DHT22;3004;48.080;11.600;2023-02-23T11:42:12;10.60;99.90
5956;DHT22;3004;48.080;11.600;2023-02-23T11:47:21;10.60;99.90
5956;DHT22;3004;48.080;11.600;2023-02-23T11:52:21;11.10;99.90
5956;DHT22;3004;48.080;11.600;2023-02-23T11:54:54;11.30;99.90
5956;DHT22;3004;48.080;11.600;2023-02-23T11:59:52;11.40;99.90
5956;DHT22;3004;48.080;11.600;2023-02-23T12:02:23;11.30;99.90
5956;DHT22;3004;48.080;11.600;2023-02-23T12:04:52;11.40;99.90
5956;DHT22;3004;48.080;11.600;2023-02-23T12:07:35;11.10;99.90
5956;DHT22;3004;48.080;11.600;2023-02-23T12:15:29;11.70;99.90
5956;DHT22;3004;48.080;11.600;2023-02-23T12:28:16;11.70;99.90
5956;DHT22;3004;48.080;11.600;2023-02-23T12:38:45;11.90;99.90
5956;DHT22;3004;48.080;11.600;2023-02-23T12:41:20;11.70;99.90
5956;DHT22;3004;48.080;11.600;2023-02-23T12:43:55;11.70;99.90
5956;DHT22;3004;48.080;11.600;2023-02-23T12:46:29;11.10;99.90
5956;DHT22;3004;48.080;11.600;2023-02-23T12:49:03;11.40;99.90
5956;DHT22;3004;48.080;11.600;2023-02-23T12:51:35;11.60;99.90
5956;DHT22;3004;48.080;11.600;2023-02-23T12:54:07;11.60;99.90
5956;DHT22;3004;48.080;11.600;2023-02-23T12:56:46;11.60;99.90
5956;DHT22;3004;48.080;11.600;2023-02-23T12:59:46;11.50;99.90
5956;DHT22;3004;48.080;11.600;2023-02-23T13:07:42;10.70;99.90
5956;DHT22;3004;48.080;11.600;2023-02-23T13:10:25;10.80;99.90
5956;DHT22;3004;48.080;11.600;2023-02-23T13:13:02;11.00;99.90
5956;DHT22;3004;48.080;11.600;2023-02-23T13:15:45;11.20;99.90
5956;DHT22;3004;48.080;11.600;2023-02-23T13:18:22;11.20;99.90
5956;DHT22;3004;48.080;11.600;2023-02-23T13:20:54;11.30;99.90
5956;DHT22;3004;48.080;11.600;2023-02-23T13:23:27;11.30;99.90
5956;DHT22;3004;48.080;11.600;2023-02-23T13:26:03;11.20;99.90
5956;DHT22;3004;48.080;11.600;2023-02-23T13:28:40;11.20;99.90
5956;DHT22;3004;48.080;11.600;2023-02-23T13:31:20;11.10;99.90
5956;DHT22;3004;48.080;11.600;2023-02-23T13:33:55;10.90;99.90
5956;DHT22;3004;48.080;11.600;2023-02-23T13:36:28;11.00;99.90
5956;DHT22;3004;48.080;11.600;2023-02-23T13:41:42;10.90;99.90
5956;DHT22;3004;48.080;11.600;2023-02-23T13:44:17;10.90;99.90
5956;DHT22;3004;48.080;11.600;2023-02-23T13:52:01;10.90;99.90
5956;DHT22;3004;48.080;11.600;2023-02-23T13:54:38;11.00;99.90
5956;DHT22;3004;48.080;11.600;2023-02-23T13:57:17;11.10;99.90
5956;DHT22;3004;48.080;11.600;2023-02-23T13:59:47;11.20;99.90
5956;DHT22;3004;48.080;11.600;2023-02-23T14:02:31;11.30;99.90
5956;DHT22;3004;48.080;11.600;2023-02-23T14:05:06;11.30;99.90
5956;DHT22;3004;48.080;11.600;2023-02-23T14:07:42;11.20;99.90
5956;DHT22;3004;48.080;11.600;2023-02-23T14:10:16;11.20;99.90
5956;DHT22;3004;48.080;11.600;2023-02-23T14:13:06;11.30;99.90
5956;DHT22;3004;48.080;11.600;2023-02-23T14:15:48;11.30;99.90
5956;DHT22;3004;48.080;11.600;2023-02-23T14:18:33;11.50;99.90
5956;DHT22;3004;48.080;11.600;2023-02-23T14:21:12;11.50;99.90
5956;DHT22;3004;48.080;11.600;2023-02-23T14:23:50;11.30;99.90
5956;DHT22;3004;48.080;11.600;2023-02-23T14:29:21;11.40;99.90
5956;DHT22;3004;48.080;11.600;2023-02-23T14:32:29;11.30;99.90
5956;DHT22;3004;48.080;11.600;2023-02-23T14:34:59;11.40;99.90
5956;DHT22;3004;48.080;11.600;2023-02-23T14:37:34;11.40;99.90
5956;DHT22;3004;48.080;11.600;2023-02-23T14:40:10;11.50;99.90
5956;DHT22;3004;48.080;11.600;2023-02-23T14:42:41;11.40;99.90
5956;DHT22;3004;48.080;11.600;2023-02-23T14:45:17;11.50;99.90
5956;DHT22;3004;48.080;11.600;2023-02-23T14:50:24;11.50;99.90
5956;DHT22;3004;48.080;11.600;2023-02-23T14:55:40;11.40;99.90
5956;DHT22;3004;48.080;11.600;2023-02-23T15:00:47;11.50;99.90
5956;DHT22;3004;48.080;11.600;2023-02-23T15:03:16;11.30;99.90
5956;DHT22;3004;48.080;11.600;2023-02-23T15:05:51;11.30;99.90
5956;DHT22;3004;48.080;11.600;2023-02-23T15:08:26;11.20;99.90
5956;DHT22;3004;48.080;11.600;2023-02-23T15:11:01;11.20;99.90
5956;DHT22;3004;48.080;11.600;2023-02-23T15:13:30;11.20;99.90
5956;DHT22;3004;48.080;11.600;2023-02-23T15:16:02;11.20;99.90
5956;DHT22;3004;48.080;11.600;2023-02-23T15:21:55;11.20;99.90
5956;DHT22;3004;48.080;11.600;2023-02-23T15:24:26;11.10;99.90
5956;DHT22;3004;48.080;11.600;2023-02-23T15:26:59;11.10;99.90
5956;DHT22;3004;48.080;11.600;2023-02-23T15:29:35;11.00;99.90
5956;DHT22;3004;48.080;11.600;2023-02-23T15:32:17;11.10;99.90
5956;DHT22;3004;48.080;11.600;2023-02-23T15:39:55;10.70;99.90
5956;DHT22;3004;48.080;11.600;2023-02-23T15:42:24;10.70;99.90
5956;DHT22;3004;48.080;11.600;2023-02-23T15:44:55;10.70;99.90
5956;DHT22;3004;48.080;11.600;2023-02-23T15:47:30;10.50;99.90
5956;DHT22;3004;48.080;11.600;2023-02-23T15:52:33;10.50;99.90
5956;DHT22;3004;48.080;11.600;2023-02-23T15:55:12;10.50;99.90
5956;DHT22;3004;48.080;11.600;2023-02-23T15:57:45;10.40;99.90
5956;DHT22;3004;48.080;11.600;2023-02-23T16:00:19;10.30;99.90
5956;DHT22;3004;48.080;11.600;2023-02-23T16:02:55;10.00;99.90
5956;DHT22;3004;48.080;11.600;2023-02-23T16:05:27;10.20;99.90
5956;DHT22;3004;48.080;11.600;2023-02-23T16:10:43;10.10;99.90
5956;DHT22;3004;48.080;11.600;2023-02-23T16:13:12;10.00;99.90
5956;DHT22;3004;48.080;11.600;2023-02-23T16:15:42;10.10;99.90
5956;DHT22;3004;48.080;11.600;2023-02-23T16:20:44;10.00;99.90
5956;DHT22;3004;48.080;11.600;2023-02-23T16:23:23;10.10;99.90
5956;DHT22;3004;48.080;11.600;2023-02-23T16:30:58;9.90;99.90
5956;DHT22;3004;48.080;11.600;2023-02-23T16:38:41;9.90;99.90
5956;DHT22;3004;48.080;11.600;2023-02-23T16:41:17;9.80;99.90
5956;DHT22;3004;48.080;11.600;2023-02-23T16:43:49;9.80;99.90
5956;DHT22;3004;48.080;11.600;2023-02-23T16:46:31;9.80;99.90
5956;DHT22;3004;48.080;11.600;2023-02-23T16:54:10;9.50;99.90
5956;DHT22;3004;48.080;11.600;2023-02-23T16:59:53;9.30;99.90
5956;DHT22;3004;48.080;11.600;2023-02-23T17:02:53;9.30;99.90
5956;DHT22;3004;48.080;11.600;2023-02-23T17:05:42;9.10;99.90
5956;DHT22;3004;48.080;11.600;2023-02-23T17:08:10;9.10;99.90
5956;DHT22;3004;48.080;11.600;2023-02-23T17:10:40;9.00;99.90
5956;DHT22;3004;48.080;11.600;2023-02-23T17:13:14;8.90;99.90
5956;DHT22;3004;48.080;11.600;2023-02-23T17:15:45;8.80;99.90
5956;DHT22;3004;48.080;11.600;2023-02-23T17:18:16;8.80;99.90
5956;DHT22;3004;48.080;11.600;2023-02-23T17:20:45;8.80;99.90
5956;DHT22;3004;48.080;11.600;2023-02-23T17:23:12;8.70;99.90
5956;DHT22;3004;48.080;11.600;2023-02-23T17:25:41;8.60;99.90
5956;DHT22;3004;48.080;11.600;2023-02-23T17:41:55;8.00;99.90
5956;DHT22;3004;48.080;11.600;2023-02-23T17:46:59;7.80;99.90
5956;DHT22;3004;48.080;11.600;2023-02-23T17:49:41;7.70;99.90
5956;DHT22;3004;48.080;11.600;2023-02-23T17:52:13;7.50;99.90
5956;DHT22;3004;48.080;11.600;2023-02-23T17:57:11;7.20;99.90
5956;DHT22;3004;48.080;11.600;2023-02-23T17:59:49;7.10;99.90
5956;DHT22;3004;48.080;11.600;2023-02-23T18:09:29;6.80;99.90
5956;DHT22;3004;48.080;11.600;2023-02-23T18:12:00;6.60;99.90
5956;DHT22;3004;48.080;11.600;2023-02-23T18:14:27;6.50;99.90
5956;DHT22;3004;48.080;11.600;2023-02-23T18:16:58;6.40;99.90
5956;DHT22;3004;48.080;11.600;2023-02-23T18:22:01;6.10;99.90
5956;DHT22;3004;48.080;11.600;2023-02-23T18:29:37;5.90;99.90
5956;DHT22;3004;48.080;11.600;2023-02-23T18:32:17;5.90;99.90
5956;DHT22;3004;48.080;11.600;2023-02-23T18:34:45;5.80;99.90
5956;DHT22;3004;48.080;11.600;2023-02-23T18:37:33;5.50;99.90
5956;DHT22;3004;48.080;11.600;2023-02-23T18:43:39;5.50;99.90
5956;DHT22;3004;48.080;11.600;2023-02-23T18:48:47;5.30;99.90
5956;DHT22;3004;48.080;11.600;2023-02-23T18:51:19;4.80;99.90
5956;DHT22;3004;48.080;11.600;2023-02-23T18:53:54;5.20;99.90
5956;DHT22;3004;48.080;11.600;2023-02-23T18:56:26;5.10;99.90
5956;DHT22;3004;48.080;11.600;2023-02-23T18:59:08;5.10;99.90
5956;DHT22;3004;48.080;11.600;2023-02-23T19:01:51;5.10;99.90
5956;DHT22;3004;48.080;11.600;2023-02-23T19:04:32;4.90;99.90
5956;DHT22;3004;48.080;11.600;2023-02-23T19:12:30;4.80;99.90
5956;DHT22;3004;48.080;11.600;2023-02-23T19:15:09;4.80;99.90
5956;DHT22;3004;48.080;11.600;2023-02-23T19:17:52;4.70;99.90
5956;DHT22;3004;48.080;11.600;2023-02-23T19:20:45;4.50;99.90
5956;DHT22;3004;48.080;11.600;2023-02-23T19:23:23;4.40;99.90
5956;DHT22;3004;48.080;11.600;2023-02-23T19:26:07;4.40;99.90
5956;DHT22;3004;48.080;11.600;2023-02-23T19:28:39;4.30;99.90
5956;DHT22;3004;48.080;11.600;2023-02-23T19:31:37;4.30;99.90
5956;DHT22;3004;48.080;11.600;2023-02-23T19:34:27;4.20;99.90
5956;DHT22;3004;48.080;11.600;2023-02-23T19:37:08;4.10;99.90
5956;DHT22;3004;48.080;11.600;2023-02-23T19:39:57;4.00;99.90
5956;DHT22;3004;48.080;11.600;2023-02-23T19:45:08;3.80;99.90
5956;DHT22;3004;48.080;11.600;2023-02-23T19:47:37;3.80;99.90
5956;DHT22;3004;48.080;11.600;2023-02-23T19:50:12;3.70;99.90
5956;DHT22;3004;48.080;11.600;2023-02-23T19:52:42;3.60;99.90
5956;DHT22;3004;48.080;11.600;2023-02-23T19:55:10;3.60;99.90
5956;DHT22;3004;48.080;11.600;2023-02-23T19:57:38;3.50;99.90
5956;DHT22;3004;48.080;11.600;2023-02-23T20:00:09;3.40;99.90
5956;DHT22;3004;48.080;11.600;2023-02-23T20:02:40;3.30;99.90
5956;DHT22;3004;48.080;11.600;2023-02-23T20:05:11;3.30;99.90
5956;DHT22;3004;48.080;11.600;2023-02-23T20:07:41;3.30;99.90
5956;DHT22;3004;48.080;11.600;2023-02-23T20:10:37;3.20;99.90
5956;DHT22;3004;48.080;11.600;2023-02-23T20:13:28;3.00;99.90
5956;DHT22;3004;48.080;11.600;2023-02-23T20:19:48;3.00;99.90
5956;DHT22;3004;48.080;11.600;2023-02-23T20:28:18;2.80;99.90
5956;DHT22;3004;48.080;11.600;2023-02-23T20:30:46;2.80;99.90
5956;DHT22;3004;48.080;11.600;2023-02-23T20:33:16;2.80;99.90
5956;DHT22;3004;48.080;11.600;2023-02-23T20:35:44;2.90;99.90
5956;DHT22;3004;48.080;11.600;2023-02-23T20:38:11;2.90;99.90
5956;DHT22;3004;48.080;11.600;2023-02-23T20:40:40;2.80;99.90
5956;DHT22;3004;48.080;11.600;2023-02-23T20:43:15;2.80;99.90
5956;DHT22;3004;48.080;11.600;2023-02-23T20:45:44;1.90;99.90
5956;DHT22;3004;48.080;11.600;2023-02-23T20:48:19;2.60;99.90
5956;DHT22;3004;48.080;11.600;2023-02-23T20:51:16;2.60;99.90
5956;DHT22;3004;48.080;11.600;2023-02-23T20:54:51;2.60;99.90
5956;DHT22;3004;48.080;11.600;2023-02-23T20:57:55;2.50;99.90
5956;DHT22;3004;48.080;11.600;2023-02-23T21:00:33;2.70;99.90
5956;DHT22;3004;48.080;11.600;2023-02-23T21:03:06;2.60;99.90
5956;DHT22;3004;48.080;11.600;2023-02-23T21:09:04;2.70;99.90
5956;DHT22;3004;48.080;11.600;2023-02-23T21:12:08;2.90;99.90
5956;DHT22;3004;48.080;11.600;2023-02-23T21:14:47;2.80;99.90
5956;DHT22;3004;48.080;11.600;2023-02-23T21:17:16;2.80;99.90
5956;DHT22;3004;48.080;11.600;2023-02-23T21:19:43;2.80;99.90
5956;DHT22;3004;48.080;11.600;2023-02-23T21:22:19;2.80;99.90
5956;DHT22;3004;48.080;11.600;2023-02-23T21:27:43;2.90;99.90
5956;DHT22;3004;48.080;11.600;2023-02-23T21:30:12;2.90;99.90
5956;DHT22;3004;48.080;11.600;2023-02-23T21:32:40;3.00;99.90
5956;DHT22;3004;48.080;11.600;2023-02-23T21:35:26;3.00;99.90
5956;DHT22;3004;48.080;11.600;2023-02-23T21:37:54;2.90;99.90
5956;DHT22;3004;48.080;11.600;2023-02-23T21:40:21;2.80;99.90
5956;DHT22;3004;48.080;11.600;2023-02-23T21:42:53;2.80;99.90
5956;DHT22;3004;48.080;11.600;2023-02-23T21:45:23;2.80;99.90
5956;DHT22;3004;48.080;11.600;2023-02-23T21:52:02;2.80;99.90
5956;DHT22;3004;48.080;11.600;2023-02-23T21:54:04;2.90;99.90
5956;DHT22;3004;48.080;11.600;2023-02-23T21:56:31;2.90;99.90
5956;DHT22;3004;48.080;11.600;2023-02-23T21:59:05;2.80;99.90
5956;DHT22;3004;48.080;11.600;2023-02-23T22:01:35;2.70;99.90
5956;DHT22;3004;48.080;11.600;2023-02-23T22:04:04;2.70;99.90
5956;DHT22;3004;48.080;11.600;2023-02-23T22:06:34;2.70;99.90
5956;DHT22;3004;48.080;11.600;2023-02-23T22:09:03;2.70;99.90
5956;DHT22;3004;48.080;11.600;2023-02-23T22:11:31;2.60;99.90
5956;DHT22;3004;48.080;11.600;2023-02-23T22:14:00;2.50;99.90
5956;DHT22;3004;48.080;11.600;2023-02-23T22:18:57;2.30;99.90
5956;DHT22;3004;48.080;11.600;2023-02-23T22:21:28;2.50;99.90
5956;DHT22;3004;48.080;11.600;2023-02-23T22:23:55;2.50;99.90
5956;DHT22;3004;48.080;11.600;2023-02-23T22:28:50;2.30;99.90
5956;DHT22;3004;48.080;11.600;2023-02-23T22:31:17;2.30;99.90
5956;DHT22;3004;48.080;11.600;2023-02-23T22:33:45;2.20;99.90
5956;DHT22;3004;48.080;11.600;2023-02-23T22:36:13;2.20;99.90
5956;DHT22;3004;48.080;11.600;2023-02-23T22:41:11;2.10;99.90
5956;DHT22;3004;48.080;11.600;2023-02-23T22:43:39;2.00;99.90
5956;DHT22;3004;48.080;11.600;2023-02-23T22:46:25;2.00;99.90
5956;DHT22;3004;48.080;11.600;2023-02-23T22:49:25;1.90;99.90
5956;DHT22;3004;48.080;11.600;2023-02-23T22:51:51;1.80;99.90
5956;DHT22;3004;48.080;11.600;2023-02-23T22:54:24;1.80;99.90
5956;DHT22;3004;48.080;11.600;2023-02-23T22:57:01;1.70;99.90
5956;DHT22;3004;48.080;11.600;2023-02-23T22:59:55;1.70;99.90
5956;DHT22;3004;48.080;11.600;2023-02-23T23:02:29;1.60;99.90
5956;DHT22;3004;48.080;11.600;2023-02-23T23:04:59;1.50;99.90
5956;DHT22;3004;48.080;11.600;2023-02-23T23:07:29;1.50;99.90
5956;DHT22;3004;48.080;11.600;2023-02-23T23:09:57;1.50;99.90
5956;DHT22;3004;48.080;11.600;2023-02-23T23:12:34;1.60;99.90
5956;DHT22;3004;48.080;11.600;2023-02-23T23:15:05;1.40;99.90
5956;DHT22;3004;48.080;11.600;2023-02-23T23:17:39;1.40;99.90
5956;DHT22;3004;48.080;11.600;2023-02-23T23:20:15;1.30;99.90
5956;DHT22;3004;48.080;11.600;2023-02-23T23:22:45;1.30;99.90
5956;DHT22;3004;48.080;11.600;2023-02-23T23:25:14;1.30;99.90
5956;DHT22;3004;48.080;11.600;2023-02-23T23:27:48;0.50;99.90
5956;DHT22;3004;48.080;11.600;2023-02-23T23:30:19;1.30;99.90
5956;DHT22;3004;48.080;11.600;2023-02-23T23:32:52;1.30;99.90
5956;DHT22;3004;48.080;11.600;2023-02-23T23:35:21;1.20;99.90
5956;DHT22;3004;48.080;11.600;2023-02-23T23:37:52;1.20;99.90
5956;DHT22;3004;48.080;11.600;2023-02-23T23:40:32;1.20;99.90
5956;DHT22;3004;48.080;11.600;2023-02-23T23:43:02;1.20;99.90
5956;DHT22;3004;48.080;11.600;2023-02-23T23:45:34;1.30;99.90
5956;DHT22;3004;48.080;11.600;2023-02-23T23:48:08;1.20;99.90
5956;DHT22;3004;48.080;11.600;2023-02-23T23:50:39;0.80;99.90
5956;DHT22;3004;48.080;11.600;2023-02-23T23:53:07;1.20;99.90
5956;DHT22;3004;48.080;11.600;2023-02-23T23:55:35;1.30;99.90
5956;DHT22;3004;48.080;11.600;2023-02-23T23:58:02;1.30;99.90
